Time;durP1;ratioP1;P1;durP2;ratioP2;P2;SDS_P1;SDS_P2;PMS_P1;PMS_P2;Temp;Humidity;BMP_temperature;BMP_pressure;BME280_temperature;BME280_humidity;BME280_pressure;Samples;Min_cycle;Max_cycle;Signal;HPM_P1;HPM_P2
2023/07/12 00:02:22;;;;;;;13.88;6.88;;;;;;;;;;5056106;28;20115;-61
2023/07/12 00:04:48;;;;;;;14.30;6.78;;;;;;;;;;5054096;28;20021;-61
2023/07/12 00:07:14;;;;;;;13.90;6.53;;;;;;;;;;5054853;28;20491;-60
2023/07/12 00:09:40;;;;;;;15.55;6.85;;;;;;;;;;5054791;28;20056;-59
2023/07/12 00:12:07;;;;;;;14.15;6.40;;;;;;;;;;5054656;28;20056;-59
2023/07/12 00:14:33;;;;;;;15.20;7.18;;;;;;;;;;5053846;28;20021;-60
2023/07/12 00:16:58;;;;;;;15.20;7.63;;;;;;;;;;5054690;28;20047;-61
2023/07/12 00:19:24;;;;;;;16.25;8.45;;;;;;;;;;5053217;28;20096;-61
2023/07/12 00:21:50;;;;;;;15.73;11.15;;;;;;;;;;5054112;28;20477;-59
2023/07/12 00:24:16;;;;;;;16.77;14.68;;;;;;;;;;5053195;28;20025;-60
2023/07/12 00:26:42;;;;;;;18.60;16.10;;;;;;;;;;5054373;28;20021;-61
2023/07/12 00:29:09;;;;;;;20.13;16.13;;;;;;;;;;5054211;28;20175;-61
2023/07/12 00:31:35;;;;;;;16.02;13.40;;;;;;;;;;5054351;28;20060;-61
2023/07/12 00:34:01;;;;;;;15.77;12.32;;;;;;;;;;5053808;28;20512;-61
2023/07/12 00:36:29;;;;;;;15.50;11.00;;;;;;;;;;5054087;28;20025;-61
2023/07/12 00:38:58;;;;;;;16.02;11.23;;;;;;;;;;5054245;28;20037;-57
2023/07/12 00:41:30;;;;;;;16.40;10.90;;;;;;;;;;5054000;28;20025;-60
2023/07/12 00:44:01;;;;;;;16.00;10.80;;;;;;;;;;5053529;28;20095;-60
2023/07/12 00:46:32;;;;;;;15.43;11.10;;;;;;;;;;5053849;28;20374;-59
2023/07/12 00:48:58;;;;;;;16.08;11.65;;;;;;;;;;5053368;28;20112;-58
2023/07/12 00:51:24;;;;;;;15.73;11.93;;;;;;;;;;5054185;28;20031;-61
2023/07/12 00:53:50;;;;;;;17.67;12.75;;;;;;;;;;5054229;28;20112;-61
2023/07/12 00:56:16;;;;;;;17.05;12.20;;;;;;;;;;5053473;28;20091;-61
2023/07/12 00:58:48;;;;;;;16.48;11.80;;;;;;;;;;5053777;28;20104;-61
2023/07/12 01:01:14;;;;;;;16.63;10.90;;;;;;;;;;5053929;28;20029;-61
2023/07/12 01:03:42;;;;;;;15.02;10.98;;;;;;;;;;5053785;28;20025;-60
2023/07/12 01:06:09;;;;;;;15.85;11.20;;;;;;;;;;5053045;28;20056;-63
2023/07/12 01:08:36;;;;;;;16.25;12.13;;;;;;;;;;5052482;28;20025;-58
2023/07/12 01:11:03;;;;;;;16.48;11.52;;;;;;;;;;5053758;28;20477;-59
2023/07/12 01:13:30;;;;;;;17.02;11.55;;;;;;;;;;5053769;28;20479;-58
2023/07/12 01:15:58;;;;;;;16.40;11.50;;;;;;;;;;5052929;28;20162;-60
2023/07/12 01:18:24;;;;;;;16.85;11.57;;;;;;;;;;5053635;28;20029;-59
2023/07/12 01:21:08;;;;;;;16.63;11.88;;;;;;;;;;5053417;28;20500;-60
2023/07/12 01:23:35;;;;;;;17.17;10.90;;;;;;;;;;5053260;28;20056;-59
2023/07/12 01:26:13;;;;;;;15.30;10.30;;;;;;;;;;5052603;28;20021;-59
2023/07/12 01:28:40;;;;;;;16.50;11.05;;;;;;;;;;5051950;28;20370;-59
2023/07/12 01:31:05;;;;;;;16.88;11.40;;;;;;;;;;5051949;28;20117;-58
2023/07/12 01:33:32;;;;;;;16.98;10.60;;;;;;;;;;5051901;28;20064;-58
2023/07/12 01:35:58;;;;;;;15.52;10.98;;;;;;;;;;5052412;28;20108;-58
2023/07/12 01:38:24;;;;;;;15.63;10.60;;;;;;;;;;5053258;28;20108;-58
2023/07/12 01:40:49;;;;;;;16.13;11.18;;;;;;;;;;5053112;28;20035;-58
2023/07/12 01:43:15;;;;;;;16.55;10.70;;;;;;;;;;5052875;28;20552;-59
2023/07/12 01:45:41;;;;;;;16.40;11.20;;;;;;;;;;5052400;28;20036;-56
2023/07/12 01:48:07;;;;;;;18.05;12.68;;;;;;;;;;5051807;28;20057;-57
2023/07/12 01:50:33;;;;;;;16.25;12.40;;;;;;;;;;5053101;28;20040;-56
2023/07/12 01:52:59;;;;;;;16.40;13.30;;;;;;;;;;5053099;28;20521;-58
2023/07/12 01:55:25;;;;;;;16.48;13.20;;;;;;;;;;5052486;28;20029;-59
2023/07/12 01:57:51;;;;;;;16.17;13.43;;;;;;;;;;5053574;28;20158;-60
2023/07/12 02:00:17;;;;;;;16.88;12.93;;;;;;;;;;5053343;28;20036;-59
2023/07/12 02:02:43;;;;;;;17.70;12.50;;;;;;;;;;5052183;28;20087;-58
2023/07/12 02:05:10;;;;;;;16.95;12.43;;;;;;;;;;5071755;28;20020;-58
2023/07/12 02:07:36;;;;;;;15.90;11.98;;;;;;;;;;5072412;28;20020;-58
2023/07/12 02:10:11;;;;;;;15.60;11.60;;;;;;;;;;5072622;28;20025;-60
2023/07/12 02:12:37;;;;;;;18.30;12.40;;;;;;;;;;5072493;28;20388;-59
2023/07/12 02:15:03;;;;;;;16.98;12.35;;;;;;;;;;5071671;28;20024;-60
2023/07/12 02:17:29;;;;;;;16.00;11.65;;;;;;;;;;5072795;28;20365;-56
2023/07/12 02:19:55;;;;;;;20.95;13.20;;;;;;;;;;5072513;28;20032;-60
2023/07/12 02:22:21;;;;;;;16.25;11.77;;;;;;;;;;5072633;28;20078;-60
2023/07/12 02:24:47;;;;;;;17.05;11.73;;;;;;;;;;5071653;28;20376;-60
2023/07/12 02:27:13;;;;;;;16.38;11.80;;;;;;;;;;5072300;28;20033;-60
2023/07/12 02:29:39;;;;;;;15.52;10.90;;;;;;;;;;5071907;28;20024;-60
2023/07/12 02:32:05;;;;;;;15.93;11.60;;;;;;;;;;5070868;28;20028;-61
2023/07/12 02:34:31;;;;;;;16.35;11.75;;;;;;;;;;5071426;28;20060;-59
2023/07/12 02:36:57;;;;;;;17.27;11.88;;;;;;;;;;5072168;28;20053;-60
2023/07/12 02:39:23;;;;;;;18.92;10.98;;;;;;;;;;5071885;28;20027;-60
2023/07/12 02:41:49;;;;;;;15.98;10.13;;;;;;;;;;5071944;28;20025;-60
2023/07/12 02:44:15;;;;;;;15.68;9.23;;;;;;;;;;5070983;28;20020;-60
2023/07/12 02:46:41;;;;;;;15.02;8.65;;;;;;;;;;5071880;28;20023;-60
2023/07/12 02:49:06;;;;;;;15.10;8.45;;;;;;;;;;5071469;28;20413;-57
2023/07/12 02:51:32;;;;;;;14.98;7.78;;;;;;;;;;5071911;28;20020;-60
2023/07/12 02:53:58;;;;;;;14.40;7.65;;;;;;;;;;5071273;28;20024;-60
2023/07/12 02:56:24;;;;;;;14.98;7.43;;;;;;;;;;5071914;28;20016;-58
2023/07/12 02:58:50;;;;;;;14.25;7.10;;;;;;;;;;5070177;28;20048;-59
2023/07/12 03:01:16;;;;;;;15.10;6.70;;;;;;;;;;5071592;28;20056;-60
2023/07/12 03:03:42;;;;;;;15.38;6.70;;;;;;;;;;5070310;28;20032;-59
2023/07/12 03:06:10;;;;;;;16.25;7.03;;;;;;;;;;5070803;28;20043;-60
2023/07/12 03:08:36;;;;;;;16.33;6.43;;;;;;;;;;5071293;28;20029;-58
2023/07/12 03:11:03;;;;;;;14.50;6.90;;;;;;;;;;5071487;28;20033;-60
2023/07/12 03:13:29;;;;;;;14.52;6.00;;;;;;;;;;5071261;28;20499;-60
2023/07/12 03:15:55;;;;;;;13.90;5.90;;;;;;;;;;5070835;28;20020;-59
2023/07/12 03:18:21;;;;;;;15.20;5.78;;;;;;;;;;5070219;28;20027;-59
2023/07/12 03:20:48;;;;;;;14.73;5.60;;;;;;;;;;5071457;28;20024;-59
2023/07/12 03:23:14;;;;;;;14.80;6.07;;;;;;;;;;5071407;28;20020;-60
2023/07/12 03:25:40;;;;;;;14.73;6.07;;;;;;;;;;5070674;28;20031;-59
2023/07/12 03:28:06;;;;;;;16.17;6.60;;;;;;;;;;5071567;28;20474;-59
2023/07/12 03:30:32;;;;;;;14.88;6.57;;;;;;;;;;5071506;28;20112;-60
2023/07/12 03:32:58;;;;;;;18.98;6.70;;;;;;;;;;5071601;28;20025;-58
2023/07/12 03:35:24;;;;;;;17.42;8.43;;;;;;;;;;5070472;28;20495;-58
2023/07/12 03:37:50;;;;;;;27.60;25.05;;;;;;;;;;5070862;28;20025;-57
2023/07/12 03:40:16;;;;;;;27.60;25.20;;;;;;;;;;5069901;28;20035;-55
2023/07/12 03:42:42;;;;;;;30.00;27.50;;;;;;;;;;5069857;28;20028;-58
2023/07/12 03:45:08;;;;;;;31.80;28.70;;;;;;;;;;5070323;28;20108;-57
2023/07/12 03:47:34;;;;;;;32.70;30.05;;;;;;;;;;5070775;28;20422;-56
2023/07/12 03:50:00;;;;;;;34.28;31.30;;;;;;;;;;5070905;28;20028;-58
2023/07/12 03:52:25;;;;;;;32.95;30.02;;;;;;;;;;5071151;28;20392;-56
2023/07/12 03:54:51;;;;;;;32.95;30.08;;;;;;;;;;5068910;28;20037;-57
2023/07/12 03:57:17;;;;;;;34.25;31.25;;;;;;;;;;5069733;28;20029;-59
2023/07/12 03:59:43;;;;;;;31.98;29.30;;;;;;;;;;5071014;28;20059;-58
2023/07/12 04:02:09;;;;;;;32.83;29.40;;;;;;;;;;5070904;28;20534;-59
2023/07/12 04:04:35;;;;;;;30.55;27.90;;;;;;;;;;5070245;28;20164;-58
2023/07/12 04:07:02;;;;;;;31.45;28.45;;;;;;;;;;5071014;28;20056;-57
2023/07/12 04:09:28;;;;;;;30.35;27.67;;;;;;;;;;5070694;28;20029;-59
2023/07/12 04:11:54;;;;;;;31.30;28.10;;;;;;;;;;5071020;28;20030;-57
2023/07/12 04:14:20;;;;;;;29.60;26.85;;;;;;;;;;5070243;28;20430;-59
2023/07/12 04:16:47;;;;;;;29.48;26.63;;;;;;;;;;5070953;28;20024;-59
2023/07/12 04:19:13;;;;;;;28.80;26.20;;;;;;;;;;5070777;28;20089;-59
2023/07/12 04:21:39;;;;;;;27.95;25.40;;;;;;;;;;5069283;28;20434;-59
2023/07/12 04:24:05;;;;;;;29.75;27.02;;;;;;;;;;5071084;28;20047;-60
2023/07/12 04:26:31;;;;;;;29.85;27.33;;;;;;;;;;5074091;28;20040;-59
2023/07/12 04:28:57;;;;;;;29.85;27.00;;;;;;;;;;5074258;28;20025;-58
2023/07/12 04:31:23;;;;;;;28.00;25.48;;;;;;;;;;5074398;28;20028;-59
2023/07/12 04:33:50;;;;;;;28.08;25.35;;;;;;;;;;5074209;28;20023;-57
2023/07/12 04:36:17;;;;;;;27.17;24.88;;;;;;;;;;5073584;28;20024;-58
2023/07/12 04:38:43;;;;;;;27.63;25.15;;;;;;;;;;5073828;28;20104;-59
2023/07/12 04:41:10;;;;;;;27.35;24.85;;;;;;;;;;5074051;28;20086;-58
2023/07/12 04:43:36;;;;;;;27.90;25.40;;;;;;;;;;5073824;28;20025;-60
2023/07/12 04:46:03;;;;;;;27.88;25.38;;;;;;;;;;5073255;28;20021;-57
2023/07/12 04:48:30;;;;;;;28.13;24.60;;;;;;;;;;5074064;28;20380;-56
2023/07/12 04:50:56;;;;;;;24.38;21.88;;;;;;;;;;5073806;28;20021;-58
2023/07/12 04:53:23;;;;;;;26.17;23.58;;;;;;;;;;5073911;28;20090;-55
2023/07/12 04:55:51;;;;;;;26.80;24.20;;;;;;;;;;5073154;28;20473;-57
2023/07/12 04:58:17;;;;;;;26.60;24.08;;;;;;;;;;5073868;28;20024;-59
2023/07/12 05:00:44;;;;;;;26.42;23.83;;;;;;;;;;5073573;28;20031;-56
2023/07/12 05:03:10;;;;;;;26.85;24.35;;;;;;;;;;5073509;28;20449;-55
2023/07/12 05:05:37;;;;;;;26.20;23.70;;;;;;;;;;5072890;28;20036;-56
2023/07/12 05:08:05;;;;;;;25.42;22.85;;;;;;;;;;5073692;28;20051;-57
2023/07/12 05:10:31;;;;;;;25.52;23.20;;;;;;;;;;5073253;28;20556;-59
2023/07/12 05:12:57;;;;;;;26.67;24.15;;;;;;;;;;5071910;28;20048;-59
2023/07/12 05:15:23;;;;;;;26.30;23.90;;;;;;;;;;5072564;28;20366;-58
2023/07/12 05:17:49;;;;;;;26.33;23.70;;;;;;;;;;5073232;28;20540;-57
2023/07/12 05:20:16;;;;;;;27.02;24.50;;;;;;;;;;5073172;28;20062;-59
2023/07/12 05:22:43;;;;;;;26.55;24.00;;;;;;;;;;5073046;28;20025;-55
2023/07/12 05:25:09;;;;;;;26.42;23.92;;;;;;;;;;5072411;28;20511;-59
2023/07/12 05:27:36;;;;;;;25.92;23.60;;;;;;;;;;5072971;28;20527;-59
2023/07/12 05:30:02;;;;;;;25.60;23.25;;;;;;;;;;5073140;28;20108;-57
2023/07/12 05:32:28;;;;;;;25.60;23.27;;;;;;;;;;5073074;28;20052;-60
2023/07/12 05:34:54;;;;;;;25.17;22.63;;;;;;;;;;5072186;28;20066;-59
2023/07/12 05:37:20;;;;;;;25.27;22.65;;;;;;;;;;5071681;28;20033;-59
2023/07/12 05:39:46;;;;;;;24.13;21.90;;;;;;;;;;5072692;28;20040;-59
2023/07/12 05:42:12;;;;;;;24.88;22.25;;;;;;;;;;5072969;28;20134;-56
2023/07/12 05:44:38;;;;;;;22.67;20.27;;;;;;;;;;5071991;28;20444;-56
2023/07/12 05:47:05;;;;;;;22.95;20.75;;;;;;;;;;5072413;28;20039;-59
2023/07/12 05:49:31;;;;;;;22.23;19.92;;;;;;;;;;5072467;28;20104;-59
2023/07/12 05:51:59;;;;;;;22.08;19.63;;;;;;;;;;5072701;28;20063;-59
2023/07/12 05:54:25;;;;;;;22.40;20.20;;;;;;;;;;5071706;28;20431;-59
2023/07/12 05:56:51;;;;;;;22.73;20.52;;;;;;;;;;5071182;28;20032;-59
2023/07/12 05:59:19;;;;;;;20.92;18.63;;;;;;;;;;5072394;28;20033;-60
2023/07/12 06:01:44;;;;;;;22.70;20.30;;;;;;;;;;5072172;28;20024;-59
2023/07/12 06:04:11;;;;;;;21.90;19.60;;;;;;;;;;5072888;28;20490;-56
2023/07/12 06:06:37;;;;;;;20.63;18.48;;;;;;;;;;5072295;28;20427;-58
2023/07/12 06:09:03;;;;;;;22.67;18.35;;;;;;;;;;5068977;28;20100;-57
2023/07/12 06:11:29;;;;;;;20.60;18.50;;;;;;;;;;5072087;28;20020;-59
2023/07/12 06:13:55;;;;;;;21.17;18.02;;;;;;;;;;5071814;28;20472;-57
2023/07/12 06:16:21;;;;;;;19.45;16.70;;;;;;;;;;5067334;28;20020;-58
2023/07/12 06:18:47;;;;;;;20.25;15.63;;;;;;;;;;5051975;28;20436;-59
2023/07/12 06:21:13;;;;;;;18.70;15.68;;;;;;;;;;5051969;28;20028;-59
2023/07/12 06:23:39;;;;;;;23.38;16.48;;;;;;;;;;5051705;28;20549;-58
2023/07/12 06:26:05;;;;;;;20.85;15.10;;;;;;;;;;5064539;28;20017;-59
2023/07/12 06:28:32;;;;;;;18.23;15.48;;;;;;;;;;5072020;28;20092;-59
2023/07/12 06:30:58;;;;;;;18.60;15.00;;;;;;;;;;5070599;28;20020;-57
2023/07/12 06:33:24;;;;;;;18.30;16.30;;;;;;;;;;5071676;28;20427;-59
2023/07/12 06:35:50;;;;;;;19.27;15.32;;;;;;;;;;5070950;28;20029;-59
2023/07/12 06:38:17;;;;;;;18.95;14.43;;;;;;;;;;5071689;28;20036;-59
2023/07/12 06:40:45;;;;;;;19.45;13.98;;;;;;;;;;5071485;28;20024;-57
2023/07/12 06:43:12;;;;;;;17.15;10.55;;;;;;;;;;5056922;28;20037;-58
2023/07/12 06:45:38;;;;;;;17.45;10.68;;;;;;;;;;5050772;28;20036;-59
2023/07/12 06:48:04;;;;;;;18.45;9.25;;;;;;;;;;5051015;28;20044;-59
2023/07/12 06:50:30;;;;;;;15.85;8.30;;;;;;;;;;5051759;28;20020;-62
2023/07/12 06:52:56;;;;;;;17.27;8.90;;;;;;;;;;5051245;28;20496;-56
2023/07/12 06:55:22;;;;;;;15.65;7.90;;;;;;;;;;5049324;28;20031;-60
2023/07/12 06:57:48;;;;;;;15.02;7.75;;;;;;;;;;5051282;28;20033;-59
2023/07/12 07:00:14;;;;;;;15.38;7.32;;;;;;;;;;5049507;28;20079;-59
2023/07/12 07:02:40;;;;;;;15.70;7.13;;;;;;;;;;5051212;28;20036;-60
2023/07/12 07:05:06;;;;;;;16.08;7.50;;;;;;;;;;5050495;28;20019;-58
2023/07/12 07:07:32;;;;;;;16.67;7.10;;;;;;;;;;5051354;28;20056;-58
2023/07/12 07:09:58;;;;;;;17.77;7.20;;;;;;;;;;5066671;28;20437;-58
2023/07/12 07:12:24;;;;;;;16.73;7.75;;;;;;;;;;5071473;28;20057;-57
2023/07/12 07:14:50;;;;;;;16.48;7.88;;;;;;;;;;5070920;28;20434;-60
2023/07/12 07:17:16;;;;;;;15.68;6.88;;;;;;;;;;5071827;28;20033;-58
2023/07/12 07:19:42;;;;;;;16.17;7.00;;;;;;;;;;5071252;28;20534;-57
2023/07/12 07:22:08;;;;;;;17.40;7.72;;;;;;;;;;5071249;28;20031;-58
2023/07/12 07:24:34;;;;;;;17.17;7.68;;;;;;;;;;5070530;28;20032;-56
2023/07/12 07:27:00;;;;;;;15.45;7.60;;;;;;;;;;5071298;28;20021;-59
2023/07/12 07:29:26;;;;;;;16.92;8.13;;;;;;;;;;5071428;28;20056;-55
2023/07/12 07:31:52;;;;;;;15.82;7.15;;;;;;;;;;5071586;28;20511;-57
2023/07/12 07:34:18;;;;;;;16.63;8.00;;;;;;;;;;5070577;28;20020;-52
2023/07/12 07:36:44;;;;;;;17.42;7.68;;;;;;;;;;5061402;28;20036;-50
2023/07/12 07:39:10;;;;;;;15.73;7.30;;;;;;;;;;5054756;28;20024;-50
2023/07/12 07:41:36;;;;;;;20.25;9.32;;;;;;;;;;5060857;28;20063;-53
2023/07/12 07:44:02;;;;;;;19.67;8.00;;;;;;;;;;5056017;28;20025;-51
2023/07/12 07:46:28;;;;;;;16.98;7.57;;;;;;;;;;5051216;28;20028;-54
2023/07/12 07:48:54;;;;;;;20.73;8.35;;;;;;;;;;5052744;28;20475;-55
2023/07/12 07:51:20;;;;;;;18.42;8.15;;;;;;;;;;5052808;28;20031;-52
2023/07/12 07:53:46;;;;;;;18.02;8.35;;;;;;;;;;5070530;28;20051;-51
2023/07/12 07:56:12;;;;;;;19.85;8.25;;;;;;;;;;5070262;28;20078;-51
2023/07/12 07:58:38;;;;;;;17.92;7.72;;;;;;;;;;5072658;28;20044;-49
2023/07/12 08:01:04;;;;;;;16.85;8.73;;;;;;;;;;5074961;28;20025;-54
2023/07/12 08:03:31;;;;;;;17.02;8.05;;;;;;;;;;5068238;28;20040;-54
2023/07/12 08:06:01;;;;;;;19.85;8.30;;;;;;;;;;5071859;28;20033;-53
2023/07/12 08:08:28;;;;;;;17.15;8.57;;;;;;;;;;5072725;28;20032;-50
2023/07/12 08:10:54;;;;;;;19.40;8.57;;;;;;;;;;5069622;28;20400;-48
2023/07/12 08:13:20;;;;;;;16.95;8.55;;;;;;;;;;5074606;28;20039;-53
2023/07/12 08:15:46;;;;;;;16.42;8.15;;;;;;;;;;5066764;28;20205;-50
2023/07/12 08:18:12;;;;;;;17.63;8.02;;;;;;;;;;5073869;28;20085;-51
2023/07/12 08:20:40;;;;;;;20.73;8.55;;;;;;;;;;5073068;28;20104;-52
2023/07/12 08:23:08;;;;;;;18.02;9.38;;;;;;;;;;5072248;28;20024;-50
2023/07/12 08:25:34;;;;;;;19.15;9.65;;;;;;;;;;5073730;28;20345;-55
2023/07/12 08:28:00;;;;;;;17.48;7.80;;;;;;;;;;5073381;28;20032;-55
2023/07/12 08:30:26;;;;;;;19.05;8.48;;;;;;;;;;5072664;28;20067;-54
2023/07/12 08:32:52;;;;;;;16.20;8.23;;;;;;;;;;5074591;28;20056;-50
2023/07/12 08:35:18;;;;;;;15.43;8.25;;;;;;;;;;5073952;28;20179;-51
2023/07/12 08:37:44;;;;;;;17.45;8.60;;;;;;;;;;5074309;28;20130;-52
2023/07/12 08:40:13;;;;;;;19.60;9.60;;;;;;;;;;5073278;28;20134;-52
2023/07/12 08:42:39;;;;;;;21.92;9.00;;;;;;;;;;5074049;28;20024;-54
2023/07/12 08:45:18;;;;;;;16.15;8.80;;;;;;;;;;5073520;28;20025;-54
2023/07/12 08:47:45;;;;;;;18.50;8.73;;;;;;;;;;5074005;28;20024;-55
2023/07/12 08:50:14;;;;;;;18.95;8.75;;;;;;;;;;5073758;28;20079;-56
2023/07/12 08:52:41;;;;;;;22.35;9.10;;;;;;;;;;5072794;28;20033;-54
2023/07/12 08:55:18;;;;;;;17.38;8.48;;;;;;;;;;5073461;28;20024;-55
2023/07/12 08:57:44;;;;;;;18.05;8.80;;;;;;;;;;5073575;28;20029;-54
2023/07/12 09:00:14;;;;;;;18.60;9.05;;;;;;;;;;5073473;28;20040;-56
2023/07/12 09:02:40;;;;;;;17.48;10.02;;;;;;;;;;5072385;28;20044;-52
2023/07/12 09:05:12;;;;;;;18.15;8.52;;;;;;;;;;5072867;28;20066;-52
2023/07/12 09:07:39;;;;;;;18.15;8.70;;;;;;;;;;5073476;28;20025;-54
2023/07/12 09:10:05;;;;;;;16.70;8.38;;;;;;;;;;5072861;28;20497;-53
2023/07/12 09:12:34;;;;;;;18.02;9.10;;;;;;;;;;5073602;28;20024;-52
2023/07/12 09:15:01;;;;;;;17.60;8.90;;;;;;;;;;5072775;28;20024;-54
2023/07/12 09:17:29;;;;;;;16.02;7.88;;;;;;;;;;5072985;28;20033;-57
2023/07/12 09:19:55;;;;;;;17.20;9.15;;;;;;;;;;5073440;28;20032;-49
2023/07/12 09:22:22;;;;;;;19.08;8.40;;;;;;;;;;5073325;28;20068;-51
2023/07/12 09:24:52;;;;;;;15.65;8.20;;;;;;;;;;5072591;28;20024;-51
2023/07/12 09:27:23;;;;;;;17.98;8.93;;;;;;;;;;5073566;28;20091;-50
2023/07/12 09:29:58;;;;;;;17.25;9.55;;;;;;;;;;5073259;28;20025;-54
2023/07/12 09:32:25;;;;;;;16.00;8.95;;;;;;;;;;5071342;28;20035;-51
2023/07/12 09:34:54;;;;;;;20.38;8.60;;;;;;;;;;5071425;28;20032;-51
2023/07/12 09:37:22;;;;;;;;;;;;;;;;;;5073784;28;20036;-53
2023/07/12 09:39:58;;;;;;;17.13;8.50;;;;;;;;;;5072992;28;19997;-52
2023/07/12 09:42:25;;;;;;;17.23;8.27;;;;;;;;;;5073301;28;20103;-48
2023/07/12 09:44:51;;;;;;;15.70;8.20;;;;;;;;;;5072259;28;20025;-49
2023/07/12 09:47:34;;;;;;;16.70;8.52;;;;;;;;;;5064979;28;20036;-50
2023/07/12 09:50:00;;;;;;;17.50;8.93;;;;;;;;;;5065584;28;20020;-48
2023/07/12 09:52:28;;;;;;;19.40;9.30;;;;;;;;;;5072684;28;20512;-52
2023/07/12 09:54:54;;;;;;;18.20;8.80;;;;;;;;;;5072239;28;20400;-50
2023/07/12 09:57:20;;;;;;;16.52;8.48;;;;;;;;;;5072720;28;20094;-47
2023/07/12 10:00:03;;;;;;;18.20;8.45;;;;;;;;;;5072607;28;20500;-48
2023/07/12 10:02:28;;;;;;;21.88;8.68;;;;;;;;;;5057978;28;20055;-49
2023/07/12 10:04:58;;;;;;;16.55;8.27;;;;;;;;;;5070604;28;20036;-48
2023/07/12 10:07:27;;;;;;;17.38;8.40;;;;;;;;;;5072312;28;20016;-48
2023/07/12 10:09:54;;;;;;;18.42;8.20;;;;;;;;;;5072146;28;20061;-51
2023/07/12 10:12:35;;;;;;;19.77;8.85;;;;;;;;;;5072315;28;20111;-48
2023/07/12 10:15:01;;;;;;;15.82;8.00;;;;;;;;;;5070046;28;20036;-48
2023/07/12 10:17:33;;;;;;;17.90;9.38;;;;;;;;;;5072192;28;20025;-53
2023/07/12 10:20:00;;;;;;;19.02;9.20;;;;;;;;;;5072335;28;20040;-53
2023/07/12 10:22:29;;;;;;;14.73;8.43;;;;;;;;;;5071815;28;20120;-51
2023/07/12 10:24:56;;;;;;;17.45;9.57;;;;;;;;;;5072072;28;20031;-49
2023/07/12 10:27:24;;;;;;;17.25;9.57;;;;;;;;;;5072622;28;20021;-48
2023/07/12 10:29:59;;;;;;;17.80;9.10;;;;;;;;;;5066241;28;20091;-50
2023/07/12 10:32:28;;;;;;;16.40;9.30;;;;;;;;;;5069107;28;20050;-53
2023/07/12 10:35:03;;;;;;;19.17;9.30;;;;;;;;;;5051304;28;20025;-48
2023/07/12 10:37:44;;;;;;;17.70;10.02;;;;;;;;;;5051225;28;20448;-52
2023/07/12 10:40:16;;;;;;;17.20;9.65;;;;;;;;;;5051470;28;20636;-52
2023/07/12 10:42:45;;;;;;;18.45;9.95;;;;;;;;;;5051444;28;20489;-49
2023/07/12 10:45:31;;;;;;;17.13;9.70;;;;;;;;;;5050662;28;20051;-50
2023/07/12 10:47:58;;;;;;;16.63;9.48;;;;;;;;;;5051497;28;20044;-49
2023/07/12 10:50:24;;;;;;;16.98;9.07;;;;;;;;;;5051176;28;20150;-48
2023/07/12 10:53:11;;;;;;;16.02;9.05;;;;;;;;;;5051442;28;20099;-50
2023/07/12 10:55:39;;;;;;;19.67;10.27;;;;;;;;;;5050341;28;20120;-53
2023/07/12 10:58:23;;;;;;;17.50;10.33;;;;;;;;;;5051546;28;20032;-50
2023/07/12 11:00:51;;;;;;;17.10;9.70;;;;;;;;;;5051282;28;20274;-49
2023/07/12 11:03:19;;;;;;;19.27;9.60;;;;;;;;;;5064467;28;20075;-50
2023/07/12 11:05:45;;;;;;;;;;;;;;;;;;5071750;28;20108;-48
2023/07/12 11:08:30;;;;;;;15.25;9.40;;;;;;;;;;5071648;28;20386;-49
2023/07/12 11:10:56;;;;;;;16.63;9.18;;;;;;;;;;5065561;28;20044;-52
2023/07/12 11:13:22;;;;;;;16.77;9.15;;;;;;;;;;5071750;28;20055;-49
2023/07/12 11:15:52;;;;;;;17.50;9.40;;;;;;;;;;5070760;28;20055;-52
2023/07/12 11:18:23;;;;;;;17.73;9.82;;;;;;;;;;5062202;28;20020;-53
2023/07/12 11:20:57;;;;;;;17.85;9.88;;;;;;;;;;5055467;28;20565;-46
2023/07/12 11:23:38;;;;;;;15.90;9.60;;;;;;;;;;5051221;28;20033;-51
2023/07/12 11:26:18;;;;;;;17.20;9.45;;;;;;;;;;5050693;28;20157;-50
2023/07/12 11:28:44;;;;;;;18.83;9.68;;;;;;;;;;5051285;28;20017;-49
2023/07/12 11:31:10;;;;;;;16.45;9.05;;;;;;;;;;5051322;28;20074;-49
2023/07/12 11:33:36;;;;;;;17.33;9.25;;;;;;;;;;5053134;28;20107;-46
2023/07/12 11:36:13;;;;;;;17.15;9.27;;;;;;;;;;5054558;28;20558;-48
2023/07/12 11:38:42;;;;;;;15.65;9.30;;;;;;;;;;5055251;28;20017;-48
2023/07/12 11:41:15;;;;;;;16.50;9.60;;;;;;;;;;5055151;28;20100;-51
2023/07/12 11:43:41;;;;;;;16.73;9.98;;;;;;;;;;5055094;28;20021;-53
2023/07/12 11:46:13;;;;;;;16.90;9.80;;;;;;;;;;5053921;28;20021;-50
2023/07/12 11:48:42;;;;;;;18.38;10.80;;;;;;;;;;5054655;28;20100;-51
2023/07/12 11:51:08;;;;;;;17.30;10.43;;;;;;;;;;5054735;28;20028;-51
2023/07/12 11:53:35;;;;;;;16.08;10.45;;;;;;;;;;5057186;28;20021;-47
2023/07/12 11:56:01;;;;;;;15.95;10.70;;;;;;;;;;5073971;28;20115;-49
2023/07/12 11:58:27;;;;;;;17.55;11.35;;;;;;;;;;5074880;28;20084;-53
2023/07/12 12:00:55;;;;;;;18.08;11.05;;;;;;;;;;5074712;28;20024;-49
2023/07/12 12:03:21;;;;;;;;;;;;;;;;;;5074842;28;20020;-46
2023/07/12 12:05:59;;;;;;;18.73;11.85;;;;;;;;;;5072917;28;19911;-50
2023/07/12 12:08:26;;;;;;;15.23;11.02;;;;;;;;;;5074513;28;20154;-43
2023/07/12 12:10:53;;;;;;;18.48;12.07;;;;;;;;;;5072888;28;20031;-47
2023/07/12 12:13:23;;;;;;;18.30;11.80;;;;;;;;;;5074056;28;20036;-45
2023/07/12 12:16:09;;;;;;;16.20;11.35;;;;;;;;;;5073743;28;20058;-48
2023/07/12 12:18:35;;;;;;;17.80;11.40;;;;;;;;;;5063169;28;20057;-47
2023/07/12 12:21:06;;;;;;;17.38;11.50;;;;;;;;;;5073191;28;20052;-45
2023/07/12 12:23:39;;;;;;;17.67;12.23;;;;;;;;;;5072269;28;20034;-50
2023/07/12 12:26:14;;;;;;;16.60;11.57;;;;;;;;;;5073033;28;20104;-47
2023/07/12 12:28:40;;;;;;;17.45;12.30;;;;;;;;;;5074068;28;20373;-44
2023/07/12 12:31:15;;;;;;;16.65;11.65;;;;;;;;;;5074267;28;20068;-44
2023/07/12 12:33:46;;;;;;;16.77;12.05;;;;;;;;;;5072935;28;20073;-50
2023/07/12 12:36:15;;;;;;;17.40;12.82;;;;;;;;;;5073394;28;20407;-48
2023/07/12 12:38:41;;;;;;;17.25;12.55;;;;;;;;;;5073695;28;20036;-47
2023/07/12 12:41:15;;;;;;;16.80;12.20;;;;;;;;;;5074516;28;20062;-49
2023/07/12 12:43:56;;;;;;;18.42;12.80;;;;;;;;;;5073275;28;20033;-46
2023/07/12 12:46:22;;;;;;;17.98;12.77;;;;;;;;;;5072713;28;20017;-44
2023/07/12 12:48:51;;;;;;;17.98;12.93;;;;;;;;;;5062691;28;20504;-49
2023/07/12 12:51:18;;;;;;;18.95;12.75;;;;;;;;;;5071644;28;20020;-44
2023/07/12 12:53:44;;;;;;;18.73;12.73;;;;;;;;;;5072047;28;20036;-46
2023/07/12 12:56:13;;;;;;;15.70;12.05;;;;;;;;;;5073149;28;20032;-49
2023/07/12 12:58:39;;;;;;;17.33;12.40;;;;;;;;;;5073743;28;20103;-44
2023/07/12 13:01:05;;;;;;;18.33;12.00;;;;;;;;;;5073275;28;20038;-47
2023/07/12 13:03:32;;;;;;;19.27;12.55;;;;;;;;;;5073030;28;20142;-50
2023/07/12 13:05:58;;;;;;;16.95;12.20;;;;;;;;;;5072431;28;20027;-48
2023/07/12 13:08:24;;;;;;;18.27;12.93;;;;;;;;;;5073011;28;20160;-49
2023/07/12 13:10:50;;;;;;;16.45;12.45;;;;;;;;;;5073358;28;20020;-47
2023/07/12 13:13:17;;;;;;;18.75;12.85;;;;;;;;;;4717960;28;10000514;-47
2023/07/12 13:15:43;;;;;;;17.70;12.55;;;;;;;;;;5061035;28;20091;-51
2023/07/12 13:18:11;;;;;;;16.52;12.32;;;;;;;;;;5061897;28;20574;-50
2023/07/12 13:20:37;;;;;;;19.53;12.20;;;;;;;;;;5070046;28;20063;-47
2023/07/12 13:23:03;;;;;;;15.80;11.82;;;;;;;;;;5057334;28;20025;-42
2023/07/12 13:25:29;;;;;;;16.95;12.25;;;;;;;;;;5048933;28;20036;-45
2023/07/12 13:27:56;;;;;;;17.90;12.10;;;;;;;;;;5050257;28;20025;-48
2023/07/12 13:30:25;;;;;;;17.77;11.80;;;;;;;;;;5052325;28;20029;-48
2023/07/12 13:32:51;;;;;;;16.30;12.63;;;;;;;;;;5070215;28;20025;-45
2023/07/12 13:35:19;;;;;;;16.23;13.05;;;;;;;;;;5069195;28;20153;-48
2023/07/12 13:37:45;;;;;;;17.58;12.25;;;;;;;;;;5069325;28;20496;-50
2023/07/12 13:40:21;;;;;;;17.58;12.57;;;;;;;;;;5069640;28;20124;-49
2023/07/12 13:42:48;;;;;;;17.13;12.75;;;;;;;;;;5069462;28;20025;-48
2023/07/12 13:45:14;;;;;;;16.83;12.35;;;;;;;;;;5069103;28;20480;-45
2023/07/12 13:47:41;;;;;;;15.95;12.30;;;;;;;;;;5063709;28;20075;-49
2023/07/12 13:50:12;;;;;;;17.40;12.70;;;;;;;;;;5048956;28;20473;-48
2023/07/12 13:52:38;;;;;;;16.08;12.02;;;;;;;;;;5049189;28;20036;-48
2023/07/12 13:55:04;;;;;;;17.33;12.95;;;;;;;;;;5048506;28;20048;-51
2023/07/12 13:57:33;;;;;;;16.60;12.68;;;;;;;;;;5048366;28;20500;-49
2023/07/12 14:00:00;;;;;;;16.58;12.30;;;;;;;;;;5048613;28;20037;-48
2023/07/12 14:02:36;;;;;;;17.70;12.20;;;;;;;;;;5047702;28;20531;-48
2023/07/12 14:05:04;;;;;;;18.00;12.48;;;;;;;;;;5048493;28;20660;-48
2023/07/12 14:07:32;;;;;;;18.15;12.73;;;;;;;;;;5049181;28;20522;-55
2023/07/12 14:09:59;;;;;;;17.00;12.30;;;;;;;;;;5048246;28;20028;-47
2023/07/12 14:12:26;;;;;;;17.20;12.35;;;;;;;;;;5048405;28;20409;-50
2023/07/12 14:14:52;;;;;;;16.47;12.30;;;;;;;;;;5063163;28;20516;-47
2023/07/12 14:17:20;;;;;;;16.17;12.20;;;;;;;;;;5068492;28;20678;-48
2023/07/12 14:19:48;;;;;;;16.25;11.90;;;;;;;;;;5068624;28;20596;-48
2023/07/12 14:22:15;;;;;;;16.00;12.43;;;;;;;;;;5067908;28;20036;-45
2023/07/12 14:24:42;;;;;;;16.85;12.57;;;;;;;;;;5067312;28;20062;-46
2023/07/12 14:27:17;;;;;;;17.27;13.02;;;;;;;;;;5066938;28;20480;-45